Time,TemperatureF,DewpointF,PressureIn,WindDirection,WindDirectionDegrees,WindSpeedMPH,WindSpeedGustMPH,Humidity,HourlyPrecipIn,Conditions,Clouds,dailyrainin,SoftwareType,DateUTC
2013-01-14 00:17:00,53.1,51.0,29.98,NW,307,1.0,10.0,91,0.00,,,0.00,weatherlink.com 1.10,2013-01-14 05:17:00,
2013-01-14 00:32:00,53.1,51.0,29.98,West,274,3.0,6.0,91,0.00,,,0.00,weatherlink.com 1.10,2013-01-14 05:32:00,
2013-01-14 01:02:00,52.9,50.0,29.98,WSW,250,4.0,7.0,91,0.00,,,0.00,weatherlink.com 1.10,2013-01-14 06:02:00,
2013-01-14 01:17:00,52.9,51.0,29.97,WSW,255,1.0,8.0,92,0.00,,,0.00,weatherlink.com 1.10,2013-01-14 06:17:00,
2013-01-14 01:32:00,52.8,51.0,29.97,WNW,292,2.0,10.0,92,0.00,,,0.00,weatherlink.com 1.10,2013-01-14 06:32:00,
2013-01-14 01:47:00,52.8,51.0,29.98,WNW,284,2.0,8.0,92,0.00,,,0.00,weatherlink.com 1.10,2013-01-14 06:47:00,
2013-01-14 02:02:00,52.7,51.0,29.98,SSW,197,2.0,8.0,92,0.00,,,0.00,weatherlink.com 1.10,2013-01-14 07:02:00,
2013-01-14 02:18:00,52.6,50.0,29.98,WSW,254,10.0,10.0,92,0.00,,,0.00,weatherlink.com 1.10,2013-01-14 07:18:00,
2013-01-14 02:33:00,52.6,51.0,29.98,WSW,245,2.0,8.0,93,0.00,,,0.00,weatherlink.com 1.10,2013-01-14 07:33:00,
2013-01-14 02:48:00,52.4,51.0,29.98,SW,216,1.0,5.0,93,0.00,,,0.00,weatherlink.com 1.10,2013-01-14 07:48:00,
2013-01-14 03:03:00,52.4,51.0,29.97,West,275,3.0,4.0,93,0.00,,,0.00,weatherlink.com 1.10,2013-01-14 08:03:00,
2013-01-14 03:18:00,52.3,51.0,29.96,WSW,252,4.0,5.0,94,0.00,,,0.00,weatherlink.com 1.10,2013-01-14 08:18:00,
2013-01-14 03:33:00,52.2,51.0,29.96,SW,229,3.0,5.0,94,0.00,,,0.00,weatherlink.com 1.10,2013-01-14 08:33:00,
2013-01-14 03:48:00,52.2,51.0,29.94,South,173,1.0,5.0,94,0.00,,,0.00,weatherlink.com 1.10,2013-01-14 08:48:00,
2013-01-14 04:03:00,52.1,51.0,29.94,WSW,238,2.0,9.0,94,0.00,,,0.00,weatherlink.com 1.10,2013-01-14 09:03:00,
2013-01-14 04:18:00,52.1,51.0,29.94,West,269,7.0,11.0,94,0.00,,,0.00,weatherlink.com 1.10,2013-01-14 09:18:00,
2013-01-14 04:33:00,52.2,50.0,29.94,West,277,4.0,7.0,93,0.00,,,0.00,weatherlink.com 1.10,2013-01-14 09:33:00,
2013-01-14 04:48:00,52.2,50.0,29.94,West,281,2.0,9.0,93,0.00,,,0.00,weatherlink.com 1.10,2013-01-14 09:48:00,
2013-01-14 05:03:00,52.2,50.0,29.94,West,274,2.0,8.0,92,0.00,,,0.00,weatherlink.com 1.10,2013-01-14 10:03:00,
2013-01-14 05:18:00,52.2,50.0,29.94,West,268,3.0,7.0,92,0.00,,,0.00,weatherlink.com 1.10,2013-01-14 10:18:00,
2013-01-14 05:33:00,52.3,50.0,29.93,West,267,2.0,6.0,92,0.00,,,0.00,weatherlink.com 1.10,2013-01-14 10:33:00,
2013-01-14 05:48:00,52.4,50.0,29.93,WSW,240,6.0,6.0,92,0.00,,,0.00,weatherlink.com 1.10,2013-01-14 10:48:00,
2013-01-14 06:03:00,52.4,50.0,29.93,WSW,257,2.0,6.0,92,0.00,,,0.00,weatherlink.com 1.10,2013-01-14 11:03:00,
2013-01-14 06:18:00,52.5,50.0,29.94,WSW,239,3.0,11.0,91,0.00,,,0.00,weatherlink.com 1.10,2013-01-14 11:18:00,
2013-01-14 06:33:00,52.6,50.0,29.92,East,86,3.0,7.0,92,0.00,,,0.00,weatherlink.com 1.10,2013-01-14 11:33:00,
2013-01-14 06:48:00,52.8,51.0,29.91,WSW,245,4.0,7.0,92,0.00,,,0.00,weatherlink.com 1.10,2013-01-14 11:48:00,
2013-01-14 07:03:00,53.2,51.0,29.89,SSW,203,4.0,8.0,92,0.00,,,0.00,weatherlink.com 1.10,2013-01-14 12:03:00,
2013-01-14 07:18:00,53.3,51.0,29.87,SW,214,2.0,9.0,93,0.00,,,0.00,weatherlink.com 1.10,2013-01-14 12:18:00,
2013-01-14 07:33:00,53.5,52.0,29.84,SSE,150,3.0,12.0,93,0.00,,,0.00,weatherlink.com 1.10,2013-01-14 12:33:00,
2013-01-14 07:48:00,54.2,52.0,29.89,West,277,6.0,14.0,93,0.00,,,0.00,weatherlink.com 1.10,2013-01-14 12:48:00,
2013-01-14 08:03:00,54.5,52.0,29.93,WNW,298,2.0,9.0,92,0.00,,,0.00,weatherlink.com 1.10,2013-01-14 13:03:00,
2013-01-14 08:18:00,54.4,52.0,29.95,West,263,6.0,10.0,92,0.00,,,0.00,weatherlink.com 1.10,2013-01-14 13:18:00,
2013-01-14 08:33:00,54.4,52.0,29.95,West,259,5.0,12.0,92,0.00,,,0.00,weatherlink.com 1.10,2013-01-14 13:33:00,
2013-01-14 08:48:00,54.8,52.0,29.95,WNW,293,7.0,7.0,91,0.00,,,0.00,weatherlink.com 1.10,2013-01-14 13:48:00,
2013-01-14 09:03:00,55.0,52.0,29.96,WNW,288,3.0,10.0,90,0.00,,,0.00,weatherlink.com 1.10,2013-01-14 14:03:00,
2013-01-14 09:18:00,55.1,52.0,29.97,WSW,242,4.0,9.0,90,0.00,,,0.00,weatherlink.com 1.10,2013-01-14 14:18:00,
2013-01-14 09:33:00,55.3,52.0,29.98,SW,217,3.0,10.0,89,0.00,,,0.00,weatherlink.com 1.10,2013-01-14 14:33:00,
2013-01-14 09:48:00,55.5,52.0,29.99,ENE,59,1.0,9.0,89,0.00,,,0.00,weatherlink.com 1.10,2013-01-14 14:48:00,
2013-01-14 10:03:00,55.7,53.0,29.99,West,276,2.0,9.0,89,0.00,,,0.00,weatherlink.com 1.10,2013-01-14 15:03:00,
2013-01-14 10:18:00,55.9,52.0,29.99,West,280,2.0,7.0,88,0.00,,,0.00,weatherlink.com 1.10,2013-01-14 15:18:00,
2013-01-14 10:33:00,56.1,53.0,30.00,SSW,212,1.0,8.0,88,0.00,,,0.00,weatherlink.com 1.10,2013-01-14 15:33:00,
2013-01-14 10:49:00,56.6,53.0,29.99,NW,312,1.0,7.0,86,0.00,,,0.00,weatherlink.com 1.10,2013-01-14 15:49:00,
2013-01-14 11:04:00,57.0,52.0,29.98,WNW,288,6.0,10.0,84,0.00,,,0.00,weatherlink.com 1.10,2013-01-14 16:04:00,
2013-01-14 11:19:00,57.5,52.0,29.98,WNW,282,3.0,7.0,82,0.00,,,0.00,weatherlink.com 1.10,2013-01-14 16:19:00,
2013-01-14 11:34:00,58.8,52.0,29.98,West,271,3.0,8.0,78,0.00,,,0.00,weatherlink.com 1.10,2013-01-14 16:34:00,
2013-01-14 11:49:00,59.3,51.0,29.98,West,280,5.0,11.0,75,0.00,,,0.00,weatherlink.com 1.10,2013-01-14 16:49:00,
2013-01-14 12:04:00,58.9,51.0,29.97,West,281,4.0,9.0,74,0.00,,,0.00,weatherlink.com 1.10,2013-01-14 17:04:00,
2013-01-14 12:19:00,59.6,51.0,29.97,WNW,283,2.0,8.0,72,0.00,,,0.00,weatherlink.com 1.10,2013-01-14 17:19:00,
2013-01-14 12:34:00,59.8,50.0,29.96,WNW,287,5.0,11.0,69,0.00,,,0.00,weatherlink.com 1.10,2013-01-14 17:34:00,
2013-01-14 12:49:00,60.5,49.0,29.96,West,264,2.0,8.0,66,0.00,,,0.00,weatherlink.com 1.10,2013-01-14 17:49:00,
2013-01-14 13:04:00,61.4,48.0,29.97,SSW,200,6.0,11.0,62,0.00,,,0.00,weatherlink.com 1.10,2013-01-14 18:04:00,
2013-01-14 13:19:00,61.8,47.0,29.98,West,276,6.0,10.0,59,0.00,,,0.00,weatherlink.com 1.10,2013-01-14 18:19:00,
2013-01-14 13:34:00,61.4,46.0,29.98,West,279,5.0,12.0,57,0.00,,,0.00,weatherlink.com 1.10,2013-01-14 18:34:00,
2013-01-14 13:49:00,61.4,46.0,29.99,WSW,257,3.0,12.0,57,0.00,,,0.00,weatherlink.com 1.10,2013-01-14 18:49:00,
2013-01-14 14:04:00,61.9,45.0,30.00,WNW,290,4.0,13.0,54,0.00,,,0.00,weatherlink.com 1.10,2013-01-14 19:04:00,
2013-01-14 14:19:00,61.9,43.0,30.01,NW,308,2.0,11.0,50,0.00,,,0.00,weatherlink.com 1.10,2013-01-14 19:19:00,
2013-01-14 14:34:00,61.1,41.0,30.01,NE,52,3.0,14.0,47,0.00,,,0.00,weatherlink.com 1.10,2013-01-14 19:34:00,
2013-01-14 14:49:00,60.8,39.0,30.04,West,280,3.0,11.0,44,0.00,,,0.00,weatherlink.com 1.10,2013-01-14 19:49:00,
2013-01-14 15:04:00,59.9,36.0,30.05,NW,314,6.0,12.0,41,0.00,,,0.00,weatherlink.com 1.10,2013-01-14 20:04:00,
2013-01-14 15:19:00,58.3,34.0,30.05,NW,308,8.0,14.0,40,0.00,,,0.00,weatherlink.com 1.10,2013-01-14 20:19:00,
2013-01-14 15:34:00,57.3,34.0,30.06,WSW,245,4.0,13.0,42,0.00,,,0.00,weatherlink.com 1.10,2013-01-14 20:34:00,
2013-01-14 15:49:00,56.2,34.0,30.07,WNW,285,4.0,10.0,44,0.00,,,0.00,weatherlink.com 1.10,2013-01-14 20:49:00,
2013-01-14 16:04:00,55.5,35.0,30.07,West,271,3.0,10.0,46,0.00,,,0.00,weatherlink.com 1.10,2013-01-14 21:04:00,
2013-01-14 16:19:00,54.7,35.0,30.08,West,267,7.0,9.0,47,0.00,,,0.00,weatherlink.com 1.10,2013-01-14 21:19:00,
2013-01-14 16:34:00,53.9,35.0,30.10,WNW,283,2.0,6.0,49,0.00,,,0.00,weatherlink.com 1.10,2013-01-14 21:34:00,
2013-01-14 16:49:00,53.2,35.0,30.10,WNW,283,3.0,8.0,51,0.00,,,0.00,weatherlink.com 1.10,2013-01-14 21:49:00,
2013-01-14 17:04:00,52.4,35.0,30.09,West,273,1.0,6.0,52,0.00,,,0.00,weatherlink.com 1.10,2013-01-14 22:04:00,
2013-01-14 17:19:00,51.7,35.0,30.11,WNW,288,3.0,6.0,53,0.00,,,0.00,weatherlink.com 1.10,2013-01-14 22:19:00,
2013-01-14 17:34:00,51.1,35.0,30.11,West,271,1.0,6.0,54,0.00,,,0.00,weatherlink.com 1.10,2013-01-14 22:34:00,
2013-01-14 17:49:00,50.6,35.0,30.12,WNW,284,2.0,9.0,55,0.00,,,0.00,weatherlink.com 1.10,2013-01-14 22:49:00,
2013-01-14 18:05:00,50.0,35.0,30.11,WNW,283,1.0,5.0,56,0.00,,,0.00,weatherlink.com 1.10,2013-01-14 23:05:00,
2013-01-14 18:20:00,49.6,34.0,30.11,NW,319,1.0,6.0,56,0.00,,,0.00,weatherlink.com 1.10,2013-01-14 23:20:00,
2013-01-14 18:35:00,49.1,35.0,30.12,West,262,3.0,5.0,58,0.00,,,0.00,weatherlink.com 1.10,2013-01-14 23:35:00,
2013-01-14 18:50:00,48.7,35.0,30.14,WSW,255,0.0,4.0,59,0.00,,,0.00,weatherlink.com 1.10,2013-01-14 23:50:00,
2013-01-14 19:05:00,48.1,35.0,30.14,West,273,1.0,5.0,61,0.00,,,0.00,weatherlink.com 1.10,2013-01-15 00:05:00,
2013-01-14 19:20:00,47.7,35.0,30.15,WNW,295,2.0,5.0,62,0.00,,,0.00,weatherlink.com 1.10,2013-01-15 00:20:00,
2013-01-14 19:35:00,47.4,35.0,30.14,West,259,3.0,4.0,62,0.00,,,0.00,weatherlink.com 1.10,2013-01-15 00:35:00,
2013-01-14 19:50:00,47.1,35.0,30.15,NW,317,1.0,3.0,62,0.00,,,0.00,weatherlink.com 1.10,2013-01-15 00:50:00,
2013-01-14 20:05:00,46.8,34.0,30.16,WNW,287,3.0,6.0,62,0.00,,,0.00,weatherlink.com 1.10,2013-01-15 01:05:00,
2013-01-14 20:20:00,46.7,34.0,30.18,NW,323,1.0,3.0,61,0.00,,,0.00,weatherlink.com 1.10,2013-01-15 01:20:00,
2013-01-14 20:35:00,46.5,32.0,30.18,West,273,0.0,4.0,57,0.00,,,0.00,weatherlink.com 1.10,2013-01-15 01:35:00,
2013-01-14 20:50:00,46.4,29.0,30.19,WNW,290,2.0,5.0,52,0.00,,,0.00,weatherlink.com 1.10,2013-01-15 01:50:00,
2013-01-14 21:05:00,46.2,28.0,30.18,NNE,26,6.0,6.0,50,0.00,,,0.00,weatherlink.com 1.10,2013-01-15 02:05:00,
2013-01-14 21:20:00,45.9,29.0,30.19,NW,323,0.0,3.0,51,0.00,,,0.00,weatherlink.com 1.10,2013-01-15 02:20:00,
2013-01-14 21:35:00,45.5,28.0,30.18,NNE,33,3.0,5.0,51,0.00,,,0.00,weatherlink.com 1.10,2013-01-15 02:35:00,
2013-01-14 21:50:00,45.1,28.0,30.19,WNW,303,1.0,4.0,52,0.00,,,0.00,weatherlink.com 1.10,2013-01-15 02:50:00,
2013-01-14 22:05:00,44.8,28.0,30.19,West,259,3.0,5.0,53,0.00,,,0.00,weatherlink.com 1.10,2013-01-15 03:05:00,
2013-01-14 22:20:00,44.5,28.0,30.20,WSW,252,2.0,9.0,53,0.00,,,0.00,weatherlink.com 1.10,2013-01-15 03:20:00,
2013-01-14 22:35:00,44.2,28.0,30.21,NNE,26,4.0,6.0,54,0.00,,,0.00,weatherlink.com 1.10,2013-01-15 03:35:00,
2013-01-14 22:50:00,43.9,28.0,30.22,WNW,285,1.0,5.0,55,0.00,,,0.00,weatherlink.com 1.10,2013-01-15 03:50:00,
2013-01-14 23:05:00,43.5,28.0,30.23,NNE,18,2.0,7.0,55,0.00,,,0.00,weatherlink.com 1.10,2013-01-15 04:05:00,
2013-01-14 23:20:00,43.3,28.0,30.23,SSW,211,2.0,3.0,56,0.00,,,0.00,weatherlink.com 1.10,2013-01-15 04:20:00,
2013-01-14 23:35:00,43.0,29.0,30.23,NE,41,2.0,6.0,57,0.00,,,0.00,weatherlink.com 1.10,2013-01-15 04:35:00,
2013-01-14 23:50:00,42.8,28.0,30.24,West,268,1.0,4.0,56,0.00,,,0.00,weatherlink.com 1.10,2013-01-15 04:50:00,